METAR Data
IDs: Format: Raw Decoded Include TAF

Data at: 1345 UTC 14 Dec 2019

KJBR 141342Z AUTO 00000KT 1 3/4SM BR FEW004 BKN050 03/02 A2978 RMK AO2 T00280017
KJBR 141334Z AUTO 00000KT 3/4SM BR FEW004 SCT050 02/01 A2978 RMK AO2 T00220011
KJBR 141314Z AUTO 00000KT 1/4SM FG SCT002 BKN055 BKN090 02/01 A2978 RMK AO2 T00220011
KJBR 141305Z AUTO 00000KT 1/2SM FG BKN002 BKN060 OVC090 02/01 A2978 RMK AO2 T00220011
KJBR 141253Z AUTO 00000KT 1/4SM FG BKN002 OVC090 02/01 A2978 RMK AO2 SLP086 T00220011
KJBR 141153Z AUTO 13005KT 1/4SM FG VV002 02/02 A2975 RMK AO2 SLP074 I6000 T00220017 10028 20006 56011
KJBR 141136Z AUTO 10003KT 1/2SM FG OVC002 02/01 A2976 RMK AO2 T00220011
KJBR 141128Z AUTO 00000KT 1 3/4SM BR OVC002 02/01 A2976 RMK AO2 T00220011
KJBR 141117Z AUTO 00000KT 3SM BR OVC002 03/02 A2976 RMK AO2 T00280017
KJBR 141053Z AUTO 26003KT 2SM BR OVC002 02/01 A2976 RMK AO2 SLP078 T00170011
KJBR 141048Z AUTO 19003KT 1 1/4SM BR OVC002 01/01 A2975 RMK AO2
KJBR 141036Z AUTO 13009KT 2SM BR BKN002 BKN110 01/00 A2975 RMK AO2 VIS 1 1/4V3 PRESFR T00110000
KJBR 141029Z AUTO 00000KT 3SM BR BKN001 BKN110 01/00 A2977 RMK AO2 T00110000
KJBR 140953Z AUTO 00000KT 4SM BR SCT001 01/00 A2978 RMK AO2 SLP085 T00110000
KJBR 140949Z AUTO 00000KT 2SM BR SCT001 01/00 A2978 RMK AO2
KJBR 140947Z AUTO 26003KT 1SM BR VV001 01/01 A2978 RMK AO2
KJBR 140850Z AUTO 00000KT 1/4SM FG VV001 01/00 A2978 RMK AO2 SLP085 I3000 T00110000 55008
KJBR 140849Z AUTO 00000KT 1/4SM FG VV001 01/00 A2978 RMK AO2
KJBR 140841Z AUTO 10003KT 3/4SM BR OVC001 01/00 A2977 RMK AO2 T00110000
KJBR 140821Z AUTO 00000KT 2 1/2SM BR OVC001 02/01 A2978 RMK AO2 T00170006
KJBR 140803Z AUTO 27004KT 4SM BR BKN001 02/00 A2979 RMK AO2 T00170000
KJBR 140753Z AUTO 25003KT 6SM BR SCT001 01/00 A2978 RMK AO2 SLP085 T00110000
KJBR 140653Z AUTO 00000KT 3SM BR CLR 02/01 A2979 RMK AO2 SLP089 I1000 T00170006
KJBR 140612Z AUTO 28003KT 4SM BR FEW002 02/01 A2981 RMK AO2 I1000 T00220011
KJBR 140605Z AUTO 26003KT 2 1/2SM BR FEW002 02/01 A2981 RMK AO2 I1000 T00170006
KJBR 140553Z AUTO 00000KT 3SM BR SCT002 02/01 A2981 RMK AO2 SLP095 T00170006 10078 20017 400940017 58014
KJBR 140523Z AUTO 00000KT 3SM BR FEW002 02/01 A2982 RMK AO2 T00220011
KJBR 140515Z AUTO 00000KT 2SM BR FEW002 03/01 A2982 RMK AO2 T00280011
KJBR 140511Z AUTO 00000KT 1SM BR VV002 03/02 A2983 RMK AO2 T00280017
KJBR 140507Z AUTO 00000KT 1/2SM FG VV002 03/02 A2983 RMK AO2 T00280017
KJBR 140459Z AUTO 00000KT 3/4SM BR VV002 03/02 A2983 RMK AO2 T00280017
KJBR 140457Z AUTO 00000KT 1 1/4SM BR FEW002 03/02 A2984 RMK AO2 T00280017
KJBR 140453Z AUTO 00000KT 2 1/2SM BR CLR 03/02 A2984 RMK AO2 SLP103 T00280017
KJBR 140420Z AUTO 00000KT 3SM BR CLR 03/02 A2984 RMK AO2 T00280017
KJBR 140403Z AUTO 00000KT 2SM BR CLR 03/02 A2985 RMK AO2 T00330022
KJBR 140353Z AUTO 00000KT 1SM BR VV002 03/02 A2984 RMK AO2 SLP106 T00330022
KJBR 140348Z AUTO 00000KT 1 1/4SM BR FEW002 03/02 A2984 RMK AO2
KJBR 140343Z AUTO 00000KT 3/4SM BR VV002 03/02 A2984 RMK AO2 T00330022
KJBR 140334Z AUTO 00000KT 1/4SM FG VV002 03/02 A2984 RMK AO2 T00280017
KJBR 140324Z AUTO 00000KT 1/2SM FG VV002 03/02 A2984 RMK AO2 T00280017
KJBR 140320Z AUTO 00000KT 1 1/2SM BR CLR 03/02 A2984 RMK AO2 T00330022
KJBR 140253Z AUTO 00000KT 3SM BR CLR 04/03 A2985 RMK AO2 SLP109 T00390028 55001
KJBR 140153Z AUTO 00000KT 4SM BR CLR 05/03 A2984 RMK AO2 SLP106 T00500033
KJBR 140053Z AUTO 00000KT 6SM BR CLR 06/04 A2985 RMK AO2 SLP107 T00610044
KJBR 132353Z AUTO 00000KT 9SM CLR 08/05 A2985 RMK AO2 SLP109 60000 T00780050 10094 20078 56002
KJBR 132253Z AUTO 27003KT 10SM FEW024 BKN100 OVC120 09/05 A2985 RMK AO2 RAB19E48 SLP109 P0000 T00890050
KJBR 132153Z AUTO 19003KT 10SM FEW017 BKN060 09/05 A2985 RMK AO2 SLP109 T00890050
KJBR 132053Z AUTO 21005KT 10SM FEW017 OVC060 09/04 A2986 RMK AO2 SLP111 T00940044 56026
KJBR 132036Z AUTO 21005KT 10SM FEW017 OVC060 09/04 A2986 RMK AO2 T00940044
KJBR 132008Z AUTO VRB04KT 10SM BKN016 OVC060 09/04 A2986 RMK AO2 T00940044
KJBR 131953Z AUTO 00000KT 10SM FEW015 OVC060 09/04 A2986 RMK AO2 SLP113 T00890044
KJBR 131926Z AUTO 00000KT 10SM SCT014 BKN041 OVC065 09/04 A2988 RMK AO2 T00890044
KJBR 131853Z AUTO 26004KT 10SM OVC013 08/04 A2990 RMK AO2 SLP125 T00830044
KJBR 131753Z AUTO 23007KT 10SM OVC012 08/05 A2994 RMK AO2 SLP137 T00830050 10083 20050 58023
KJBR 131627Z AUTO VRB04KT 10SM OVC011 08/06 A2998 RMK AO2 PRESFR T00780056
KJBR 131553Z AUTO 21005KT 8SM OVC007 07/06 A3001 RMK AO2 CIG 004V010 SLP162 T00720056
KJBR 131527Z AUTO 20004KT 4SM BR OVC006 07/06 A3000 RMK AO2 CIG 002V009 T00720056
KJBR 131516Z AUTO 18004KT 3SM BR BKN004 OVC008 07/06 A3000 RMK AO2 CIG 002V007 T00670056
KJBR 131453Z AUTO 00000KT 1 1/4SM BR OVC004 06/06 A3001 RMK AO2 SLP162 T00610056 58005
KJBR 131435Z AUTO 20003KT 1 3/4SM BR OVC004 06/05 A3002 RMK AO2 T00610050
KJBR 131426Z AUTO 00000KT 1 1/4SM BR OVC005 06/05 A3002 RMK AO2 T00610050
KJBR 131415Z AUTO 00000KT 3/4SM BR BKN005 OVC010 06/05 A3001 RMK AO2 T00610050
KJBR 131407Z AUTO 19003KT 3/4SM BR VV003 06/05 A3002 RMK AO2 T00560050
KJBR 131353Z AUTO 00000KT 1/4SM FG VV003 06/05 A3002 RMK AO2 SLP166 T00560050
KJBR 131253Z AUTO 00000KT 1/4SM FG VV003 05/04 A3001 RMK AO2 SLP164 T00500044
KJBR 131233Z AUTO 11003KT 1/4SM FG VV003 05/04 A3002 RMK AO2 T00500044
KJBR 131153Z AUTO 00000KT 1/2SM FG VV004 05/04 A3002 RMK AO2 SLP166 T00500039 10050 20033 58013
KJBR 131139Z AUTO 00000KT 1/2SM FG OVC003 05/04 A3003 RMK AO2 T00500039
KJBR 131131Z AUTO 00000KT 1 3/4SM BR OVC003 05/03 A3003 RMK AO2 T00500033
KJBR 131053Z AUTO 00000KT 9SM OVC004 04/03 A3003 RMK AO2 SLP170 T00440033
KJBR 130953Z AUTO 18003KT 10SM OVC006 04/03 A3005 RMK AO2 SLP176 T00440028
KJBR 130903Z AUTO 17006KT 10SM OVC009 04/02 A3006 RMK AO2 T00440017
KJBR 130853Z AUTO 16006KT 10SM OVC011 04/02 A3006 RMK AO2 CIG 009V012 SLP179 T00440017 58019
KJBR 130837Z AUTO 17005KT 10SM BKN012 BKN110 04/02 A3007 RMK AO2 T00440017
KJBR 130753Z AUTO 18005KT 10SM OVC100 04/01 A3009 RMK AO2 SLP188 T00440011
KJBR 130653Z AUTO 18003KT 10SM SCT090 04/01 A3010 RMK AO2 SLP193 T00390006
KJBR 130553Z AUTO 17003KT 10SM CLR 04/00 A3012 RMK AO2 SLP198 T00390000 10061 20011 401111011 58010
KJBR 130453Z AUTO 00000KT 10SM CLR 02/M01 A3013 RMK AO2 SLP204 T00171006
KJBR 130353Z AUTO 00000KT 10SM CLR 02/M01 A3014 RMK AO2 SLP206 T00171006
KJBR 130253Z AUTO 00000KT 10SM CLR 02/00 A3015 RMK AO2 SLP210 T00220000 58013
KJBR 130153Z AUTO 00000KT 10SM CLR 03/00 A3017 RMK AO2 SLP217 T00280000